Terminal Aerodrome Forecast
Issued by NWS

Home | Current Version | Previous Version | Text Only | Print | Product List | Glossary On
Versions: 1 2 3 4 5 6 7 8 9 10 11 12 13 14 15 16 17 18 19 20 21 22 23
271
FTUS43 KIND 222214 AAB
TAFHUF
TAF AMD
KHUF 222214Z 2222/2318 04008KT P6SM SCT080
     FM230100 01011KT 5SM BR OVC030
     FM230400 35011G19KT 3SM BR OVC015
     FM230600 35013G21KT 2SM BR VCSH OVC003
     FM230900 34013G21KT 2SM BR VCSH OVC008
     FM231200 34013G21KT 3SM BR OVC008
     FM231600 33012G21KT 5SM BR OVC010=

USA.gov is the U.S. government's official web portal to all federal, state and local government web resources and services.